createdAt,value
2017-03-11T00:00:56.201Z,31.14
2017-03-11T00:02:05.533Z,31.62
2017-03-11T00:03:15.895Z,31.62
2017-03-11T00:04:25.461Z,31.52
2017-03-11T00:05:35.432Z,31.52
2017-03-11T00:06:45.768Z,31.33
2017-03-11T00:07:55.679Z,31.43
2017-03-11T00:09:05.570Z,31.62
2017-03-11T00:10:15.483Z,31.24
2017-03-11T00:11:25.007Z,31.33
2017-03-11T00:12:34.948Z,31.81
2017-03-11T00:13:44.531Z,31.62
2017-03-11T00:14:54.475Z,31.52
2017-03-11T00:16:04.421Z,31.52
2017-03-11T00:17:14.367Z,31.33
2017-03-11T00:18:23.943Z,31.72
2017-03-11T00:19:33.086Z,31.52
2017-03-11T00:20:43.951Z,31.43
2017-03-11T00:21:53.847Z,31.43
2017-03-11T00:23:04.163Z,31.43
2017-03-11T00:24:14.523Z,31.33
2017-03-11T00:25:23.700Z,31.33
2017-03-11T00:26:33.635Z,31.52
2017-03-11T00:27:43.200Z,31.33
2017-03-11T00:28:52.764Z,31.33
2017-03-11T00:30:03.110Z,31.43
2017-03-11T00:31:12.265Z,31.62
2017-03-11T00:32:21.450Z,31.24
2017-03-11T00:33:31.006Z,31.14
2017-03-11T00:34:40.989Z,31.33
2017-03-11T00:35:51.335Z,31.43
2017-03-11T00:37:00.503Z,30.94
2017-03-11T00:38:10.469Z,31.33
2017-03-11T00:39:20.009Z,31.52
2017-03-11T00:40:29.914Z,31.24
2017-03-11T00:41:39.473Z,31.24
2017-03-11T00:42:49.031Z,31.04
2017-03-11T00:43:58.596Z,30.94
2017-03-11T00:45:08.537Z,31.33
2017-03-11T00:46:18.069Z,31.52
2017-03-11T00:47:26.856Z,30.76
2017-03-11T00:48:36.428Z,30.83
2017-03-11T00:49:45.572Z,31.04
2017-03-11T00:50:55.450Z,31.04
2017-03-11T00:52:04.887Z,30.93
2017-03-11T00:53:14.450Z,30.93
2017-03-11T00:54:24.370Z,30.74
2017-03-11T00:55:34.096Z,30.74
2017-03-11T00:56:44.080Z,30.83
2017-03-11T00:57:53.631Z,30.93
2017-03-11T00:59:03.208Z,30.45
2017-03-11T01:00:12.420Z,30.45
2017-03-11T01:01:21.972Z,31.12
2017-03-11T01:02:31.536Z,30.64
2017-03-11T01:03:41.468Z,30.55
2017-03-11T01:04:50.977Z,30.64
2017-03-11T01:06:00.917Z,30.45
2017-03-11T01:07:10.449Z,30.55
2017-03-11T01:08:20.382Z,30.55
2017-03-11T01:09:30.317Z,30.64
2017-03-11T01:10:39.881Z,30.64
2017-03-11T01:11:49.451Z,30.83
2017-03-11T01:12:59.395Z,30.64
2017-03-11T01:14:08.176Z,30.64
2017-03-11T01:15:18.501Z,30.74
2017-03-11T01:16:28.827Z,30.74
2017-03-11T01:17:38.368Z,30.55
2017-03-11T01:18:48.285Z,30.74
2017-03-11T01:19:58.229Z,30.83
2017-03-11T01:21:08.182Z,30.45
2017-03-11T01:22:18.126Z,30.55
2017-03-11T01:23:28.305Z,30.35
2017-03-11T01:24:38.211Z,30.07
2017-03-11T01:25:47.879Z,30.16
2017-03-11T01:26:57.032Z,29.77
2017-03-11T01:28:06.934Z,30.55
2017-03-11T01:29:16.488Z,29.77
2017-03-11T01:30:26.413Z,29.97
2017-03-11T01:31:35.214Z,30.26
2017-03-11T01:32:45.224Z,30.16
2017-03-11T01:33:54.747Z,30.55
2017-03-11T01:35:04.318Z,29.87
2017-03-11T01:36:14.250Z,30.16
2017-03-11T01:37:23.057Z,30.07
2017-03-11T01:38:32.996Z,30.16
2017-03-11T01:39:42.046Z,30.16
2017-03-11T01:40:52.003Z,30.16
2017-03-11T01:42:01.163Z,29.49
2017-03-11T01:43:10.326Z,29.87
2017-03-11T01:44:19.502Z,29.97
2017-03-11T01:45:29.066Z,29.49
2017-03-11T01:46:37.841Z,30.16
2017-03-11T01:47:48.381Z,30.16
2017-03-11T01:48:57.574Z,30.26
2017-03-11T01:50:06.765Z,30.26
2017-03-11T01:51:15.927Z,29.58
2017-03-11T01:52:25.463Z,29.68
2017-03-11T01:53:34.229Z,29.97
2017-03-11T01:54:44.135Z,30.16
2017-03-11T01:55:53.306Z,30.16
2017-03-11T01:57:02.828Z,29.87
2017-03-11T01:58:13.120Z,30.16
2017-03-11T01:59:23.438Z,29.49
2017-03-11T02:00:32.602Z,29.97
2017-03-11T02:01:42.161Z,30.16
2017-03-11T02:02:51.717Z,29.77
2017-03-11T02:04:01.219Z,29.49
2017-03-11T02:05:11.195Z,30.07
2017-03-11T02:06:20.726Z,30.07
2017-03-11T02:07:30.223Z,29.58
2017-03-11T02:08:38.999Z,29.97
2017-03-11T02:09:48.930Z,30.07
2017-03-11T02:10:58.490Z,30.26
2017-03-11T02:12:08.441Z,30.16
2017-03-11T02:13:18.019Z,29.76
2017-03-11T02:14:27.951Z,29.86
2017-03-11T02:15:37.524Z,30.07
2017-03-11T02:16:47.106Z,29.76
2017-03-11T02:17:56.703Z,30.15
2017-03-11T02:19:06.222Z,29.86
2017-03-11T02:20:15.385Z,30.15
2017-03-11T02:21:25.713Z,29.38
2017-03-11T02:22:35.278Z,29.66
2017-03-11T02:23:45.228Z,29.76
2017-03-11T02:24:54.397Z,29.76
2017-03-11T02:26:03.916Z,29.66
2017-03-11T02:27:14.216Z,29.76
2017-03-11T02:28:23.719Z,29.47
2017-03-11T02:29:34.015Z,29.76
2017-03-11T02:30:43.186Z,29.08
2017-03-11T02:31:53.122Z,29.57
2017-03-11T02:33:02.690Z,29.66
2017-03-11T02:34:12.248Z,29.76
2017-03-11T02:35:22.202Z,29.66
2017-03-11T02:36:32.141Z,29.28
2017-03-11T02:37:42.088Z,29.57
2017-03-11T02:38:52.050Z,29.76
2017-03-11T02:40:01.577Z,29.66
2017-03-11T02:41:11.095Z,29.57
2017-03-11T02:42:21.224Z,29.76
2017-03-11T02:43:30.747Z,29.76
2017-03-11T02:44:39.949Z,29.57
2017-03-11T02:45:50.293Z,29.47
2017-03-11T02:47:00.245Z,29.76
2017-03-11T02:48:09.455Z,29.76
2017-03-11T02:49:18.634Z,29.08
2017-03-11T02:50:28.557Z,29.57
2017-03-11T02:51:38.537Z,29.86
2017-03-11T02:52:48.094Z,29.86
2017-03-11T02:53:57.235Z,29.66
2017-03-11T02:55:07.524Z,29.86
2017-03-11T02:56:17.479Z,29.66
2017-03-11T02:57:27.428Z,29.66
2017-03-11T02:58:36.953Z,29.47
2017-03-11T02:59:46.475Z,29.76
2017-03-11T03:00:56.047Z,29.86
2017-03-11T03:02:05.231Z,29.76
2017-03-11T03:03:15.527Z,29.76
2017-03-11T03:04:25.421Z,29.18
2017-03-11T03:05:34.984Z,29.76
2017-03-11T03:06:44.157Z,29.76
2017-03-11T03:07:54.098Z,29.76
2017-03-11T03:09:03.647Z,29.66
2017-03-11T03:10:13.213Z,29.57
2017-03-11T03:11:23.135Z,29.66
2017-03-11T03:12:33.416Z,29.47
2017-03-11T03:13:43.195Z,29.86
2017-03-11T03:14:52.769Z,29.47
2017-03-11T03:16:02.342Z,29.76
2017-03-11T03:17:11.913Z,29.76
2017-03-11T03:18:21.099Z,29.28
2017-03-11T03:19:30.300Z,29.66
2017-03-11T03:20:40.237Z,29.86
2017-03-11T03:21:50.171Z,29.47
2017-03-11T03:23:09.000Z,29.66
2017-03-11T03:24:18.581Z,29.47
2017-03-11T03:25:27.767Z,29.57
2017-03-11T03:26:38.140Z,29.08
2017-03-11T03:27:47.323Z,29.18
2017-03-11T03:28:57.304Z,29.08
2017-03-11T03:30:06.460Z,29.76
2017-03-11T03:31:15.571Z,29.76
2017-03-11T03:32:24.712Z,29.66
2017-03-11T03:33:34.231Z,29.66
2017-03-11T03:34:44.183Z,29.47
2017-03-11T03:35:54.134Z,29.76
2017-03-11T03:37:04.102Z,29.57
2017-03-11T03:38:13.680Z,29.08
2017-03-11T03:39:23.628Z,29.08
2017-03-11T03:40:32.811Z,29.28
2017-03-11T03:41:42.378Z,29.57
2017-03-11T03:42:52.720Z,29.76
2017-03-11T03:44:02.275Z,29.66
2017-03-11T03:45:12.639Z,29.66
2017-03-11T03:46:22.602Z,29.66
2017-03-11T03:47:32.158Z,29.66
2017-03-11T03:48:42.074Z,29.57
2017-03-11T03:49:51.573Z,29.57
2017-03-11T03:51:01.858Z,29.66
2017-03-11T03:52:11.427Z,29.47
2017-03-11T03:53:20.630Z,29.57
2017-03-11T03:54:30.203Z,29.66
2017-03-11T03:55:40.536Z,29.47
2017-03-11T03:56:51.245Z,29.86
2017-03-11T03:58:01.175Z,29.66
2017-03-11T03:59:09.923Z,29.66
2017-03-11T04:00:19.498Z,29.76
2017-03-11T04:01:29.286Z,29.66
2017-03-11T04:02:38.841Z,29.46
2017-03-11T04:03:49.164Z,29.74
2017-03-11T04:04:59.069Z,29.57
2017-03-11T04:06:09.774Z,29.57
2017-03-11T04:07:19.723Z,29.08
2017-03-11T04:08:30.452Z,29.74
2017-03-11T04:09:39.591Z,29.86
2017-03-11T04:10:49.504Z,29.76
2017-03-11T04:11:59.463Z,29.76
2017-03-11T04:13:10.185Z,29.86
2017-03-11T04:14:19.738Z,29.17
2017-03-11T04:15:29.681Z,29.07
2017-03-11T04:16:38.863Z,29.47
2017-03-11T04:17:49.177Z,29.84
2017-03-11T04:18:58.748Z,29.74
2017-03-11T04:20:08.665Z,29.74
2017-03-11T04:21:18.816Z,29.65
2017-03-11T04:22:28.386Z,29.84
2017-03-11T04:23:38.294Z,29.65
2017-03-11T04:24:47.407Z,29.74
2017-03-11T04:25:56.930Z,29.55
2017-03-11T04:27:07.269Z,29.55
2017-03-11T04:28:16.815Z,29.55
2017-03-11T04:29:26.419Z,29.84
2017-03-11T04:30:36.368Z,29.65
2017-03-11T04:31:45.930Z,29.65
2017-03-11T04:32:55.881Z,29.55
2017-03-11T04:34:05.443Z,29.65
2017-03-11T04:35:14.995Z,29.74
2017-03-11T04:36:24.169Z,29.36
2017-03-11T04:37:34.332Z,29.65
2017-03-11T04:38:43.910Z,29.74
2017-03-11T04:39:53.077Z,30.04
2017-03-11T04:41:02.287Z,29.84
2017-03-11T04:42:11.846Z,29.74
2017-03-11T04:43:20.995Z,29.94
2017-03-11T04:44:30.915Z,29.65
2017-03-11T04:45:40.863Z,29.74
2017-03-11T04:46:50.818Z,29.17
2017-03-11T04:48:00.783Z,29.74
2017-03-11T04:49:11.180Z,29.65
2017-03-11T04:50:20.353Z,29.65
2017-03-11T04:51:29.930Z,29.74
2017-03-11T04:52:40.085Z,29.07
2017-03-11T04:53:50.049Z,29.07
2017-03-11T04:54:59.993Z,29.74
2017-03-11T04:56:09.550Z,29.55
2017-03-11T04:57:18.736Z,29.84
2017-03-11T04:58:27.911Z,29.65
2017-03-11T04:59:36.669Z,29.74
2017-03-11T05:00:45.424Z,29.74
2017-03-11T05:01:54.988Z,29.84
2017-03-11T05:03:04.573Z,29.65
2017-03-11T05:04:14.919Z,29.84
2017-03-11T05:05:24.083Z,29.84
2017-03-11T05:06:33.988Z,29.55
2017-03-11T05:07:43.365Z,29.84
2017-03-11T05:08:53.335Z,29.84
2017-03-11T05:10:03.271Z,29.74
2017-03-11T05:11:13.210Z,29.65
2017-03-11T05:12:23.180Z,29.84
2017-03-11T05:13:33.513Z,29.55
2017-03-11T05:14:43.069Z,29.55
2017-03-11T05:15:52.620Z,29.55
2017-03-11T05:17:02.572Z,29.46
2017-03-11T05:18:12.511Z,29.55
2017-03-11T05:19:21.703Z,29.74
2017-03-11T05:20:31.245Z,29.07
2017-03-11T05:21:41.177Z,29.65
2017-03-11T05:22:50.766Z,29.46
2017-03-11T05:24:00.302Z,29.27
2017-03-11T05:25:10.200Z,28.88
2017-03-11T05:26:19.720Z,29.36
2017-03-11T05:27:28.492Z,29.74
2017-03-11T05:28:38.021Z,29.36
2017-03-11T05:29:47.976Z,29.27
2017-03-11T05:30:58.312Z,29.65
2017-03-11T05:32:08.662Z,29.65
2017-03-11T05:33:17.820Z,29.46
2017-03-11T05:34:26.959Z,29.36
2017-03-11T05:35:36.907Z,29.46
2017-03-11T05:36:46.891Z,29.46
2017-03-11T05:37:56.851Z,28.88
2017-03-11T05:39:06.405Z,29.17
2017-03-11T05:40:16.363Z,29.46
2017-03-11T05:41:25.873Z,29.36
2017-03-11T05:42:35.441Z,29.27
2017-03-11T05:43:45.715Z,29.36
2017-03-11T05:44:56.034Z,28.78
2017-03-11T05:46:05.975Z,28.97
2017-03-11T05:47:15.563Z,28.88
2017-03-11T05:48:25.150Z,29.17
2017-03-11T05:49:34.727Z,29.36
2017-03-11T05:50:44.682Z,29.07
2017-03-11T05:51:55.438Z,28.88
2017-03-11T05:53:04.983Z,29.07
2017-03-11T05:54:14.516Z,28.59
2017-03-11T05:55:24.059Z,28.69
2017-03-11T05:56:33.191Z,28.49
2017-03-11T05:57:43.548Z,28.61
2017-03-11T05:58:52.783Z,28.59
2017-03-11T06:00:02.726Z,28.88
2017-03-11T06:01:11.892Z,28.69
2017-03-11T06:02:21.836Z,28.8
2017-03-11T06:03:31.638Z,29.08
2017-03-11T06:04:40.423Z,28.61
2017-03-11T06:05:49.582Z,28.8
2017-03-11T06:06:59.473Z,28.51
2017-03-11T06:08:09.414Z,28.61
2017-03-11T06:09:18.190Z,28.51
2017-03-11T06:10:27.780Z,28.61
2017-03-11T06:11:37.364Z,28.61
2017-03-11T06:12:46.541Z,28.7
2017-03-11T06:13:56.119Z,28.61
2017-03-11T06:15:06.835Z,28.51
2017-03-11T06:16:16.405Z,28.7
2017-03-11T06:17:25.580Z,28.8
2017-03-11T06:18:35.537Z,28.7
2017-03-11T06:19:44.699Z,28.41
2017-03-11T06:20:54.642Z,28.8
2017-03-11T06:22:05.003Z,28.7
2017-03-11T06:23:14.944Z,28.51
2017-03-11T06:24:25.282Z,28.41
2017-03-11T06:25:35.219Z,28.61
2017-03-11T06:26:45.752Z,28.51
2017-03-11T06:27:55.558Z,28.7
2017-03-11T06:29:05.514Z,28.22
2017-03-11T06:30:14.242Z,28.31
2017-03-11T06:31:24.126Z,28.61
2017-03-11T06:32:33.265Z,28.03
2017-03-11T06:33:42.839Z,28.23
2017-03-11T06:34:52.408Z,28.31
2017-03-11T06:36:02.193Z,28.31
2017-03-11T06:37:11.714Z,28.13
2017-03-11T06:38:21.602Z,28.14
2017-03-11T06:39:31.521Z,28.14
2017-03-11T06:40:40.335Z,28.42
2017-03-11T06:41:49.890Z,28.14
2017-03-11T06:42:59.466Z,28.14
2017-03-11T06:44:09.427Z,28.23
2017-03-11T06:45:18.991Z,28.14
2017-03-11T06:46:28.556Z,28.04
2017-03-11T06:47:37.741Z,27.94
2017-03-11T06:48:48.636Z,28.23
2017-03-11T06:49:58.207Z,28.14
2017-03-11T06:51:07.385Z,27.75
2017-03-11T06:52:17.715Z,27.56
2017-03-11T06:53:27.274Z,27.66
2017-03-11T06:54:36.412Z,27.46
2017-03-11T06:55:46.769Z,27.46
2017-03-11T06:56:56.702Z,27.56
2017-03-11T06:58:05.875Z,27.46
2017-03-11T06:59:15.075Z,27.66
2017-03-11T07:00:24.644Z,27.37
2017-03-11T07:01:34.967Z,27.37
2017-03-11T07:02:44.929Z,27.48
2017-03-11T07:03:54.506Z,27.28
2017-03-11T07:05:04.829Z,27.28
2017-03-11T07:06:14.379Z,26.9
2017-03-11T07:07:23.963Z,26.8
2017-03-11T07:08:33.524Z,27.09
2017-03-11T07:09:43.482Z,26.9
2017-03-11T07:10:53.400Z,26.32
2017-03-11T07:12:02.158Z,26.42
2017-03-11T07:13:11.367Z,25.95
2017-03-11T07:14:21.301Z,26.81
2017-03-11T07:15:30.434Z,26.43
2017-03-11T07:16:39.609Z,26.14
2017-03-11T07:17:48.843Z,25.75
2017-03-11T07:18:59.191Z,25.46
2017-03-11T07:20:09.530Z,25.28
2017-03-11T07:21:19.099Z,24.71
2017-03-11T07:22:29.308Z,24.99
2017-03-11T07:23:39.263Z,24.33
2017-03-11T07:24:48.432Z,24.62
2017-03-11T07:25:57.608Z,24.52
2017-03-11T07:27:07.554Z,24.14
2017-03-11T07:28:17.867Z,23.57
2017-03-11T07:29:27.004Z,23.56
2017-03-11T07:30:36.917Z,23.66
2017-03-11T07:31:47.246Z,23.47
2017-03-11T07:32:56.441Z,23.47
2017-03-11T07:34:06.398Z,22.99
2017-03-11T07:35:16.564Z,23.18
2017-03-11T07:36:26.370Z,23.1
2017-03-11T07:37:36.328Z,23.1
2017-03-11T07:38:46.298Z,22.61
2017-03-11T07:39:56.624Z,22.52
2017-03-11T07:41:05.762Z,22.63
2017-03-11T07:42:15.671Z,22.63
2017-03-11T07:43:24.420Z,22.53
2017-03-11T07:44:33.234Z,22.05
2017-03-11T07:45:42.045Z,22.05
2017-03-11T07:46:51.416Z,22.24
2017-03-11T07:48:00.931Z,21.85
2017-03-11T07:49:10.889Z,22.14
2017-03-11T07:50:20.439Z,21.77
2017-03-11T07:51:30.392Z,21.86
2017-03-11T07:52:39.941Z,21.57
2017-03-11T07:53:49.781Z,21.96
2017-03-11T07:55:00.127Z,21.67
2017-03-11T07:56:08.919Z,21.86
2017-03-11T07:57:18.046Z,21.86
2017-03-11T07:58:27.231Z,21.67
2017-03-11T07:59:36.785Z,21.86
2017-03-11T08:00:46.344Z,21.86
2017-03-11T08:01:56.284Z,21.28
2017-03-11T08:03:05.833Z,22.06
2017-03-11T08:04:15.780Z,21.86
2017-03-11T08:05:24.963Z,21.39
2017-03-11T08:06:34.545Z,21.97
2017-03-11T08:07:44.350Z,21.48
2017-03-11T08:08:54.238Z,21.48
2017-03-11T08:10:04.485Z,21.39
2017-03-11T08:11:13.627Z,21.78
2017-03-11T08:12:23.201Z,21.78
2017-03-11T08:13:33.162Z,21.68
2017-03-11T08:14:43.131Z,21.88
2017-03-11T08:15:53.468Z,21.58
2017-03-11T08:17:02.620Z,21.48
2017-03-11T08:18:11.833Z,21.59
2017-03-11T08:19:21.641Z,21.59
2017-03-11T08:20:30.444Z,21.5
2017-03-11T08:21:40.369Z,21.79
2017-03-11T08:22:49.565Z,21.69
2017-03-11T08:23:59.532Z,21.69
2017-03-11T08:25:09.481Z,21.69
2017-03-11T08:26:19.041Z,21.59
2017-03-11T08:27:28.234Z,21.5
2017-03-11T08:28:37.813Z,21.69
2017-03-11T08:29:47.781Z,21.7
2017-03-11T08:30:57.374Z,21.61
2017-03-11T08:32:06.935Z,21.79
2017-03-11T08:33:16.060Z,21.61
2017-03-11T08:34:25.989Z,21.02
2017-03-11T08:35:36.644Z,21.12
2017-03-11T08:36:46.191Z,20.83
2017-03-11T08:37:56.531Z,21.7
2017-03-11T08:39:06.482Z,21.8
2017-03-11T08:40:15.989Z,21.31
2017-03-11T08:41:25.564Z,21.31
2017-03-11T08:42:35.540Z,21.12
2017-03-11T08:43:45.900Z,21.22
2017-03-11T08:44:55.476Z,20.64
2017-03-11T08:46:05.040Z,21.31
2017-03-11T08:47:14.981Z,21.22
2017-03-11T08:48:24.555Z,20.93
2017-03-11T08:49:34.523Z,20.93
2017-03-11T08:50:44.101Z,20.93
2017-03-11T08:51:54.047Z,20.93
2017-03-11T08:53:03.628Z,20.73
2017-03-11T08:54:13.608Z,21.02
2017-03-11T08:55:22.786Z,20.94
2017-03-11T08:56:32.725Z,20.94
2017-03-11T08:57:42.307Z,20.74
2017-03-11T08:58:51.495Z,21.03
2017-03-11T09:00:01.815Z,20.84
2017-03-11T09:01:11.382Z,20.84
2017-03-11T09:02:20.903Z,20.94
2017-03-11T09:03:30.490Z,20.45
2017-03-11T09:04:40.072Z,20.27
2017-03-11T09:05:49.276Z,19.3
2017-03-11T09:06:58.871Z,19.2
2017-03-11T09:08:08.825Z,18.81
2017-03-11T09:09:18.012Z,18.52
2017-03-11T09:10:27.815Z,17.74
2017-03-11T09:11:37.361Z,16.87
2017-03-11T09:12:46.914Z,16.78
2017-03-11T09:13:56.090Z,16.01
2017-03-11T09:15:06.020Z,15.81
2017-03-11T09:16:15.920Z,15.72
2017-03-11T09:17:25.496Z,15.05
2017-03-11T09:18:34.648Z,15.44
2017-03-11T09:19:44.172Z,15.16
2017-03-11T09:20:54.062Z,14.68
2017-03-11T09:22:04.805Z,14.97
2017-03-11T09:23:13.999Z,13.81
2017-03-11T09:24:23.977Z,14.2
2017-03-11T09:25:33.148Z,13.43
2017-03-11T09:26:43.111Z,12.36
2017-03-11T09:27:53.076Z,12.17
2017-03-11T09:29:02.636Z,12.18
2017-03-11T09:30:12.211Z,11.69
2017-03-11T09:31:21.656Z,11.5
2017-03-11T09:32:31.213Z,10.53
2017-03-11T09:33:41.174Z,11.11
2017-03-11T09:34:51.649Z,10.44
2017-03-11T09:36:01.570Z,11.02
2017-03-11T09:37:10.672Z,10.53
2017-03-11T09:38:19.808Z,10.15
2017-03-11T09:39:29.394Z,9.95
2017-03-11T09:40:39.535Z,9.66
2017-03-11T09:41:49.047Z,9.77
2017-03-11T09:42:58.854Z,9.28
2017-03-11T09:44:08.816Z,9.08
2017-03-11T09:45:18.425Z,8.98
2017-03-11T09:46:27.597Z,8.98
2017-03-11T09:47:36.785Z,8.79
2017-03-11T09:48:45.951Z,8.4
2017-03-11T09:49:55.890Z,8.21
2017-03-11T09:51:06.165Z,8.21
2017-03-11T09:52:15.329Z,8.11
2017-03-11T09:53:24.512Z,8.21
2017-03-11T09:54:34.077Z,7.92
2017-03-11T09:55:43.664Z,8.41
2017-03-11T09:56:53.609Z,8.31
2017-03-11T09:58:03.191Z,7.82
2017-03-11T09:59:12.342Z,7.82
2017-03-11T10:00:22.252Z,7.53
2017-03-11T10:01:31.463Z,7.73
2017-03-11T10:02:41.416Z,7.82
2017-03-11T10:03:50.855Z,7.63
2017-03-11T10:05:00.034Z,7.43
2017-03-11T10:06:09.620Z,7.43
2017-03-11T10:07:18.800Z,7.43
2017-03-11T10:08:28.726Z,7.14
2017-03-11T10:09:38.270Z,7.24
2017-03-11T10:10:47.028Z,7.34
2017-03-11T10:11:57.746Z,7.53
2017-03-11T10:13:07.313Z,7.53
2017-03-11T10:14:17.263Z,7.04
2017-03-11T10:15:27.608Z,6.85
2017-03-11T10:16:36.411Z,7.04
2017-03-11T10:17:46.390Z,7.14
2017-03-11T10:18:56.190Z,7.23
2017-03-11T10:20:06.105Z,7.23
2017-03-11T10:21:16.457Z,7.33
2017-03-11T10:22:25.647Z,7.71
2017-03-11T10:23:36.374Z,8.11
2017-03-11T10:24:46.340Z,8.01
2017-03-11T10:25:56.679Z,8.11
2017-03-11T10:27:06.245Z,7.81
2017-03-11T10:28:15.806Z,8.01
2017-03-11T10:29:25.768Z,8.01
2017-03-11T10:30:34.810Z,7.52
2017-03-11T10:31:44.758Z,8.01
2017-03-11T10:32:53.557Z,8.2
2017-03-11T10:34:03.153Z,8.11
2017-03-11T10:35:12.715Z,8.2
2017-03-11T10:36:22.688Z,8.11
2017-03-11T10:37:32.649Z,7.91
2017-03-11T10:38:41.817Z,8.11
2017-03-11T10:39:51.367Z,7.81
2017-03-11T10:41:00.900Z,7.42
2017-03-11T10:42:09.664Z,7.43
2017-03-11T10:43:20.027Z,7.53
2017-03-11T10:44:29.558Z,7.62
2017-03-11T10:45:39.471Z,7.23
2017-03-11T10:46:48.644Z,7.82
2017-03-11T10:47:57.855Z,7.33
2017-03-11T10:49:07.408Z,7.53
2017-03-11T10:50:16.786Z,7.53
2017-03-11T10:51:25.593Z,7.82
2017-03-11T10:52:35.197Z,7.53
2017-03-11T10:53:45.530Z,7.62
2017-03-11T10:54:55.497Z,7.62
2017-03-11T10:56:04.666Z,7.53
2017-03-11T10:57:14.228Z,7.14
2017-03-11T10:58:23.030Z,7.43
2017-03-11T10:59:33.384Z,6.95
2017-03-11T11:00:42.820Z,7.14
2017-03-11T11:01:52.023Z,7.24
2017-03-11T11:03:01.580Z,7.62
2017-03-11T11:04:11.152Z,7.43
2017-03-11T11:05:21.482Z,7.24
2017-03-11T11:06:31.444Z,6.85
2017-03-11T11:07:41.019Z,6.75
2017-03-11T11:08:50.960Z,6.85
2017-03-11T11:10:00.900Z,7.14
2017-03-11T11:11:11.234Z,6.75
2017-03-11T11:12:21.165Z,7.04
2017-03-11T11:13:31.114Z,6.85
2017-03-11T11:14:41.094Z,6.65
2017-03-11T11:15:50.696Z,6.95
2017-03-11T11:17:01.057Z,6.46
2017-03-11T11:18:11.441Z,6.56
2017-03-11T11:19:21.376Z,6.56
2017-03-11T11:20:30.126Z,6.56
2017-03-11T11:21:40.367Z,6.46
2017-03-11T11:22:49.955Z,6.85
2017-03-11T11:23:59.885Z,6.95
2017-03-11T11:25:09.637Z,7.14
2017-03-11T11:26:19.170Z,7.24
2017-03-11T11:27:29.894Z,6.94
2017-03-11T11:28:40.233Z,7.04
2017-03-11T11:29:50.161Z,6.95
2017-03-11T11:31:00.076Z,6.85
2017-03-11T11:32:10.030Z,6.95
2017-03-11T11:33:19.960Z,6.95
2017-03-11T11:34:29.901Z,7.14
2017-03-11T11:35:40.628Z,6.95
2017-03-11T11:36:50.579Z,6.46
2017-03-11T11:38:00.549Z,6.46
2017-03-11T11:39:10.128Z,6.46
2017-03-11T11:40:19.937Z,6.26
2017-03-11T11:41:28.754Z,6.36
2017-03-11T11:42:38.175Z,6.85
2017-03-11T11:43:48.129Z,6.84
2017-03-11T11:44:57.689Z,7.04
2017-03-11T11:46:06.892Z,6.84
2017-03-11T11:47:15.688Z,6.65
2017-03-11T11:48:26.411Z,6.84
2017-03-11T11:49:35.559Z,6.94
2017-03-11T11:50:45.129Z,6.84
2017-03-11T11:51:55.459Z,6.65
2017-03-11T11:53:05.591Z,6.74
2017-03-11T11:54:15.518Z,6.65
2017-03-11T11:55:25.083Z,6.84
2017-03-11T11:56:34.730Z,7.04
2017-03-11T11:57:44.645Z,7.14
2017-03-11T11:58:54.181Z,6.74
2017-03-11T12:00:04.517Z,6.84
2017-03-11T12:01:15.193Z,6.84
2017-03-11T12:02:24.747Z,7.14
2017-03-11T12:03:34.313Z,7.92
2017-03-11T12:04:43.497Z,7.71
2017-03-11T12:05:52.682Z,7.23
2017-03-11T12:07:02.644Z,7.81
2017-03-11T12:08:12.193Z,8.29
2017-03-11T12:09:21.372Z,8.19
2017-03-11T12:10:30.988Z,8.39
2017-03-11T12:11:40.143Z,8.77
2017-03-11T12:12:50.057Z,9.06
2017-03-11T12:13:59.628Z,9.36
2017-03-11T12:15:09.210Z,9.16
2017-03-11T12:16:17.979Z,9.94
2017-03-11T12:17:27.877Z,10.22
2017-03-11T12:18:36.661Z,9.83
2017-03-11T12:19:46.596Z,10.22
2017-03-11T12:20:55.360Z,9.92
2017-03-11T12:22:04.564Z,10.22
2017-03-11T12:23:14.118Z,10.12
2017-03-11T12:24:24.082Z,10.5
2017-03-11T12:25:34.407Z,10.5
2017-03-11T12:26:44.370Z,10.6
2017-03-11T12:27:54.346Z,10.4
2017-03-11T12:29:03.908Z,10.49
2017-03-11T12:30:13.485Z,11.18
2017-03-11T12:31:23.827Z,10.78
2017-03-11T12:32:33.049Z,11.18
2017-03-11T12:33:42.990Z,10.97
2017-03-11T12:34:52.949Z,11.46
2017-03-11T12:36:02.370Z,11.17
2017-03-11T12:37:12.297Z,10.97
2017-03-11T12:38:22.215Z,11.07
2017-03-11T12:39:30.986Z,11.26
2017-03-11T12:40:40.908Z,11.65
2017-03-11T12:41:50.486Z,11.74
2017-03-11T12:42:59.666Z,11.74
2017-03-11T12:44:09.225Z,11.64
2017-03-11T12:45:18.381Z,11.83
2017-03-11T12:46:28.298Z,11.83
2017-03-11T12:47:37.441Z,11.64
2017-03-11T12:48:47.019Z,11.93
2017-03-11T12:49:56.162Z,12.02
2017-03-11T12:51:06.498Z,11.54
2017-03-11T12:52:16.811Z,11.63
2017-03-11T12:53:26.367Z,11.63
2017-03-11T12:54:35.935Z,11.63
2017-03-11T12:55:45.872Z,11.73
2017-03-11T12:56:56.076Z,12.02
2017-03-11T12:58:05.645Z,12.02
2017-03-11T12:59:14.404Z,12.22
2017-03-11T13:00:24.736Z,12.41
2017-03-11T13:01:34.677Z,11.82
2017-03-11T13:02:44.240Z,11.92
2017-03-11T13:03:53.750Z,11.92
2017-03-11T13:05:02.537Z,12.21
2017-03-11T13:06:12.096Z,12.01
2017-03-11T13:07:22.302Z,12.3
2017-03-11T13:08:33.025Z,11.91
2017-03-11T13:09:43.353Z,12.3
2017-03-11T13:10:52.915Z,12.11
2017-03-11T13:12:01.722Z,12.11
2017-03-11T13:13:11.298Z,12.59
2017-03-11T13:14:20.492Z,12.21
2017-03-11T13:15:30.810Z,12.4
2017-03-11T13:16:40.680Z,12.79
2017-03-11T13:17:50.222Z,12.21
2017-03-11T13:18:58.997Z,12.3
2017-03-11T13:20:09.315Z,12.49
2017-03-11T13:21:19.262Z,12.21
2017-03-11T13:22:28.074Z,12.3
2017-03-11T13:23:37.424Z,12.1
2017-03-11T13:24:46.166Z,12.68
2017-03-11T13:25:56.207Z,12.59
2017-03-11T13:27:06.175Z,12.68
2017-03-11T13:28:15.725Z,12.3
2017-03-11T13:29:25.303Z,12.4
2017-03-11T13:30:35.227Z,12.4
2017-03-11T13:31:45.906Z,12.2
2017-03-11T13:32:55.055Z,12.49
2017-03-11T13:34:04.804Z,12.1
2017-03-11T13:35:14.369Z,12.1
2017-03-11T13:36:23.965Z,12.2
2017-03-11T13:37:33.928Z,12.68
2017-03-11T13:38:43.882Z,12.49
2017-03-11T13:39:53.034Z,12.77
2017-03-11T13:41:02.157Z,12.98
2017-03-11T13:42:12.128Z,12.58
2017-03-11T13:43:21.721Z,12.68
2017-03-11T13:44:31.252Z,12.58
2017-03-11T13:45:41.132Z,12.29
2017-03-11T13:46:51.423Z,12.97
2017-03-11T13:48:02.135Z,12.48
2017-03-11T13:49:11.674Z,12.58
2017-03-11T13:50:20.816Z,12.48
2017-03-11T13:51:30.411Z,12.39
2017-03-11T13:52:39.592Z,12.68
2017-03-11T13:53:49.554Z,12.1
2017-03-11T13:54:59.898Z,12.1
2017-03-11T13:56:09.469Z,12.1
2017-03-11T13:57:19.066Z,12.77
2017-03-11T13:58:28.514Z,12.48
2017-03-11T13:59:38.064Z,13.07
2017-03-11T14:00:48.426Z,12.68
2017-03-11T14:01:57.313Z,12.68
2017-03-11T14:03:06.501Z,12.97
2017-03-11T14:04:16.828Z,12.97
2017-03-11T14:05:26.020Z,12.77
2017-03-11T14:06:35.214Z,12.68
2017-03-11T14:07:44.320Z,12.97
2017-03-11T14:08:53.849Z,12.97
2017-03-11T14:10:02.895Z,12.87
2017-03-11T14:11:12.473Z,12.87
2017-03-11T14:12:22.441Z,13.06
2017-03-11T14:13:32.808Z,13.06
2017-03-11T14:14:43.133Z,13.06
2017-03-11T14:15:52.691Z,13.06
2017-03-11T14:17:01.876Z,13.15
2017-03-11T14:18:12.596Z,13.15
2017-03-11T14:19:23.329Z,13.54
2017-03-11T14:20:33.521Z,13.35
2017-03-11T14:21:43.449Z,13.35
2017-03-11T14:22:52.589Z,13.15
2017-03-11T14:24:02.535Z,13.35
2017-03-11T14:25:12.488Z,13.35
2017-03-11T14:26:22.406Z,13.15
2017-03-11T14:27:32.311Z,13.35
2017-03-11T14:28:42.259Z,12.87
2017-03-11T14:29:51.437Z,12.96
2017-03-11T14:31:01.772Z,12.67
2017-03-11T14:32:11.330Z,12.77
2017-03-11T14:33:20.866Z,12.77
2017-03-11T14:34:30.373Z,13.06
2017-03-11T14:35:39.936Z,12.96
2017-03-11T14:36:48.706Z,13.25
2017-03-11T14:37:58.679Z,13.15
2017-03-11T14:39:08.248Z,13.15
2017-03-11T14:40:18.228Z,13.63
2017-03-11T14:41:28.561Z,13.34
2017-03-11T14:42:38.483Z,13.15
2017-03-11T14:43:48.831Z,12.96
2017-03-11T14:44:58.219Z,13.34
2017-03-11T14:46:08.217Z,12.76
2017-03-11T14:47:18.187Z,12.86
2017-03-11T14:48:28.148Z,12.86
2017-03-11T14:49:37.699Z,13.15
2017-03-11T14:50:47.630Z,12.86
2017-03-11T14:51:57.040Z,12.95
2017-03-11T14:53:06.947Z,12.96
2017-03-11T14:54:16.894Z,12.85
2017-03-11T14:55:27.260Z,12.95
2017-03-11T14:56:36.454Z,12.85
2017-03-11T14:57:46.829Z,12.85
2017-03-11T14:58:56.393Z,12.76
2017-03-11T15:00:05.594Z,12.95
2017-03-11T15:01:15.167Z,12.95
2017-03-11T15:02:25.094Z,12.95
2017-03-11T15:03:34.564Z,13.62
2017-03-11T15:04:43.716Z,13.34